sensor_id;sensor_type;location;lat;lon;timestamp;P1;durP1;ratioP1;P2;durP2;ratioP2
19762;SDS011;10040;42.614;23.164;2022-08-11T00:01:08;4.70;;;3.97;;
19762;SDS011;10040;42.614;23.164;2022-08-11T00:03:43;4.45;;;3.65;;
19762;SDS011;10040;42.614;23.164;2022-08-11T00:06:14;4.10;;;3.70;;
19762;SDS011;10040;42.614;23.164;2022-08-11T00:08:49;5.10;;;3.53;;
19762;SDS011;10040;42.614;23.164;2022-08-11T00:11:19;5.38;;;3.80;;
19762;SDS011;10040;42.614;23.164;2022-08-11T00:13:48;4.75;;;3.70;;
19762;SDS011;10040;42.614;23.164;2022-08-11T00:16:16;3.70;;;3.40;;
19762;SDS011;10040;42.614;23.164;2022-08-11T00:18:46;5.45;;;3.80;;
19762;SDS011;10040;42.614;23.164;2022-08-11T00:21:18;4.30;;;3.90;;
19762;SDS011;10040;42.614;23.164;2022-08-11T00:23:51;5.32;;;3.72;;
19762;SDS011;10040;42.614;23.164;2022-08-11T00:26:22;5.05;;;3.80;;
19762;SDS011;10040;42.614;23.164;2022-08-11T00:28:52;5.57;;;4.03;;
19762;SDS011;10040;42.614;23.164;2022-08-11T00:31:21;4.93;;;3.35;;
19762;SDS011;10040;42.614;23.164;2022-08-11T00:33:52;5.82;;;3.70;;
19762;SDS011;10040;42.614;23.164;2022-08-11T00:36:22;4.18;;;3.80;;
19762;SDS011;10040;42.614;23.164;2022-08-11T00:39:01;9.02;;;3.95;;
19762;SDS011;10040;42.614;23.164;2022-08-11T00:41:33;6.07;;;3.83;;
19762;SDS011;10040;42.614;23.164;2022-08-11T00:44:10;4.05;;;3.70;;
19762;SDS011;10040;42.614;23.164;2022-08-11T00:46:49;5.85;;;3.80;;
19762;SDS011;10040;42.614;23.164;2022-08-11T00:49:29;5.22;;;4.70;;
19762;SDS011;10040;42.614;23.164;2022-08-11T00:52:09;5.07;;;3.40;;
19762;SDS011;10040;42.614;23.164;2022-08-11T00:55:06;7.40;;;3.47;;
19762;SDS011;10040;42.614;23.164;2022-08-11T00:58:04;4.13;;;3.67;;
19762;SDS011;10040;42.614;23.164;2022-08-11T01:01:07;4.97;;;4.30;;
19762;SDS011;10040;42.614;23.164;2022-08-11T01:03:45;3.90;;;3.60;;
19762;SDS011;10040;42.614;23.164;2022-08-11T01:06:47;9.38;;;4.00;;
19762;SDS011;10040;42.614;23.164;2022-08-11T01:09:36;4.15;;;3.65;;
19762;SDS011;10040;42.614;23.164;2022-08-11T01:12:23;4.78;;;3.80;;
19762;SDS011;10040;42.614;23.164;2022-08-11T01:15:22;7.03;;;3.50;;
19762;SDS011;10040;42.614;23.164;2022-08-11T01:27:31;5.90;;;3.30;;
19762;SDS011;10040;42.614;23.164;2022-08-11T01:36:54;4.22;;;3.50;;
19762;SDS011;10040;42.614;23.164;2022-08-11T01:39:51;5.03;;;3.70;;
19762;SDS011;10040;42.614;23.164;2022-08-11T01:43:03;4.10;;;3.70;;
19762;SDS011;10040;42.614;23.164;2022-08-11T01:46:14;3.78;;;3.47;;
19762;SDS011;10040;42.614;23.164;2022-08-11T01:48:48;4.55;;;3.47;;
19762;SDS011;10040;42.614;23.164;2022-08-11T01:51:32;5.55;;;3.65;;
19762;SDS011;10040;42.614;23.164;2022-08-11T01:54:14;4.90;;;4.07;;
19762;SDS011;10040;42.614;23.164;2022-08-11T01:56:52;3.92;;;3.63;;
19762;SDS011;10040;42.614;23.164;2022-08-11T01:59:31;4.43;;;3.28;;
19762;SDS011;10040;42.614;23.164;2022-08-11T02:02:20;3.97;;;3.60;;
19762;SDS011;10040;42.614;23.164;2022-08-11T02:05:14;3.55;;;3.22;;
19762;SDS011;10040;42.614;23.164;2022-08-11T02:07:51;4.88;;;3.85;;
19762;SDS011;10040;42.614;23.164;2022-08-11T02:14:14;4.65;;;3.30;;
19762;SDS011;10040;42.614;23.164;2022-08-11T02:16:51;3.92;;;3.47;;
19762;SDS011;10040;42.614;23.164;2022-08-11T02:19:31;6.90;;;3.20;;
19762;SDS011;10040;42.614;23.164;2022-08-11T02:22:24;6.05;;;3.60;;
19762;SDS011;10040;42.614;23.164;2022-08-11T02:25:19;3.90;;;3.50;;
19762;SDS011;10040;42.614;23.164;2022-08-11T02:27:57;3.63;;;3.33;;
19762;SDS011;10040;42.614;23.164;2022-08-11T02:30:32;3.53;;;3.22;;
19762;SDS011;10040;42.614;23.164;2022-08-11T02:33:07;3.17;;;2.88;;
19762;SDS011;10040;42.614;23.164;2022-08-11T02:35:54;3.83;;;3.10;;
19762;SDS011;10040;42.614;23.164;2022-08-11T02:38:29;3.10;;;2.90;;
19762;SDS011;10040;42.614;23.164;2022-08-11T02:41:09;3.75;;;3.38;;
19762;SDS011;10040;42.614;23.164;2022-08-11T02:44:04;3.38;;;3.08;;
19762;SDS011;10040;42.614;23.164;2022-08-11T02:46:43;3.60;;;3.30;;
19762;SDS011;10040;42.614;23.164;2022-08-11T02:49:23;5.28;;;3.65;;
19762;SDS011;10040;42.614;23.164;2022-08-11T02:52:18;3.53;;;3.22;;
19762;SDS011;10040;42.614;23.164;2022-08-11T02:54:52;3.78;;;3.47;;
19762;SDS011;10040;42.614;23.164;2022-08-11T02:57:33;4.75;;;3.45;;
19762;SDS011;10040;42.614;23.164;2022-08-11T03:00:07;4.90;;;3.50;;
19762;SDS011;10040;42.614;23.164;2022-08-11T03:02:42;3.00;;;2.75;;
19762;SDS011;10040;42.614;23.164;2022-08-11T03:05:21;3.40;;;3.10;;
19762;SDS011;10040;42.614;23.164;2022-08-11T03:08:04;4.00;;;3.40;;
19762;SDS011;10040;42.614;23.164;2022-08-11T03:10:44;5.47;;;3.13;;
19762;SDS011;10040;42.614;23.164;2022-08-11T03:13:35;7.82;;;3.10;;
19762;SDS011;10040;42.614;23.164;2022-08-11T03:16:28;5.13;;;2.83;;
19762;SDS011;10040;42.614;23.164;2022-08-11T03:19:17;3.58;;;3.28;;
19762;SDS011;10040;42.614;23.164;2022-08-11T03:21:52;3.88;;;3.50;;
19762;SDS011;10040;42.614;23.164;2022-08-11T03:24:32;4.00;;;3.00;;
19762;SDS011;10040;42.614;23.164;2022-08-11T03:27:29;4.05;;;3.40;;
19762;SDS011;10040;42.614;23.164;2022-08-11T03:30:09;4.65;;;3.20;;
19762;SDS011;10040;42.614;23.164;2022-08-11T03:32:45;3.38;;;3.08;;
19762;SDS011;10040;42.614;23.164;2022-08-11T03:35:36;26.77;;;8.60;;
19762;SDS011;10040;42.614;23.164;2022-08-11T03:38:15;52.50;;;13.07;;
19762;SDS011;10040;42.614;23.164;2022-08-11T03:40:53;48.15;;;12.80;;
19762;SDS011;10040;42.614;23.164;2022-08-11T03:43:57;37.25;;;11.63;;
19762;SDS011;10040;42.614;23.164;2022-08-11T03:46:35;47.47;;;12.88;;
19762;SDS011;10040;42.614;23.164;2022-08-11T03:49:21;30.83;;;10.05;;
19762;SDS011;10040;42.614;23.164;2022-08-11T03:52:01;22.95;;;9.32;;
19762;SDS011;10040;42.614;23.164;2022-08-11T03:54:40;27.45;;;8.93;;
19762;SDS011;10040;42.614;23.164;2022-08-11T04:00:23;17.95;;;7.00;;
19762;SDS011;10040;42.614;23.164;2022-08-11T04:06:22;14.63;;;5.85;;
19762;SDS011;10040;42.614;23.164;2022-08-11T04:09:32;10.32;;;5.43;;
19762;SDS011;10040;42.614;23.164;2022-08-11T04:12:35;11.43;;;4.55;;
19762;SDS011;10040;42.614;23.164;2022-08-11T04:18:35;7.45;;;4.22;;
19762;SDS011;10040;42.614;23.164;2022-08-11T04:21:42;6.88;;;3.90;;
19762;SDS011;10040;42.614;23.164;2022-08-11T04:24:41;7.05;;;4.07;;
19762;SDS011;10040;42.614;23.164;2022-08-11T04:27:34;6.32;;;4.53;;
19762;SDS011;10040;42.614;23.164;2022-08-11T04:30:48;5.30;;;3.85;;
19762;SDS011;10040;42.614;23.164;2022-08-11T04:33:40;6.50;;;4.30;;
19762;SDS011;10040;42.614;23.164;2022-08-11T04:36:34;16.13;;;5.93;;
19762;SDS011;10040;42.614;23.164;2022-08-11T04:39:38;15.27;;;5.80;;
19762;SDS011;10040;42.614;23.164;2022-08-11T04:42:25;31.10;;;10.65;;
19762;SDS011;10040;42.614;23.164;2022-08-11T04:48:38;88.95;;;24.00;;
19762;SDS011;10040;42.614;23.164;2022-08-11T04:51:41;86.60;;;23.75;;
19762;SDS011;10040;42.614;23.164;2022-08-11T04:54:44;103.55;;;32.28;;
19762;SDS011;10040;42.614;23.164;2022-08-11T04:57:50;103.35;;;40.50;;
19762;SDS011;10040;42.614;23.164;2022-08-11T05:00:50;139.80;;;53.17;;
19762;SDS011;10040;42.614;23.164;2022-08-11T05:03:45;161.60;;;56.28;;
19762;SDS011;10040;42.614;23.164;2022-08-11T05:07:01;112.28;;;42.20;;
19762;SDS011;10040;42.614;23.164;2022-08-11T05:09:48;115.47;;;39.60;;
19762;SDS011;10040;42.614;23.164;2022-08-11T05:12:35;98.70;;;35.75;;
19762;SDS011;10040;42.614;23.164;2022-08-11T05:15:29;81.65;;;26.98;;
19762;SDS011;10040;42.614;23.164;2022-08-11T05:18:21;38.17;;;15.90;;
19762;SDS011;10040;42.614;23.164;2022-08-11T05:21:09;42.85;;;16.85;;
19762;SDS011;10040;42.614;23.164;2022-08-11T05:23:57;38.40;;;15.60;;
19762;SDS011;10040;42.614;23.164;2022-08-11T05:26:52;33.28;;;12.98;;
19762;SDS011;10040;42.614;23.164;2022-08-11T05:29:40;30.77;;;12.52;;
19762;SDS011;10040;42.614;23.164;2022-08-11T05:32:29;42.50;;;14.95;;
19762;SDS011;10040;42.614;23.164;2022-08-11T05:35:23;39.08;;;14.45;;
19762;SDS011;10040;42.614;23.164;2022-08-11T05:38:04;25.13;;;10.75;;
19762;SDS011;10040;42.614;23.164;2022-08-11T05:40:54;27.20;;;11.40;;
19762;SDS011;10040;42.614;23.164;2022-08-11T05:43:43;20.63;;;10.90;;
19762;SDS011;10040;42.614;23.164;2022-08-11T05:46:30;10.00;;;8.07;;
19762;SDS011;10040;42.614;23.164;2022-08-11T05:49:22;15.35;;;9.57;;
19762;SDS011;10040;42.614;23.164;2022-08-11T05:52:12;10.88;;;9.20;;
19762;SDS011;10040;42.614;23.164;2022-08-11T05:55:00;13.45;;;8.95;;
19762;SDS011;10040;42.614;23.164;2022-08-11T05:57:46;11.60;;;9.82;;
19762;SDS011;10040;42.614;23.164;2022-08-11T06:00:17;10.98;;;9.93;;
19762;SDS011;10040;42.614;23.164;2022-08-11T06:02:47;14.15;;;9.98;;
19762;SDS011;10040;42.614;23.164;2022-08-11T06:05:24;14.93;;;9.68;;
19762;SDS011;10040;42.614;23.164;2022-08-11T06:07:59;12.35;;;9.07;;
19762;SDS011;10040;42.614;23.164;2022-08-11T06:10:29;11.20;;;9.82;;
19762;SDS011;10040;42.614;23.164;2022-08-11T06:12:59;9.25;;;7.43;;
19762;SDS011;10040;42.614;23.164;2022-08-11T06:15:31;8.20;;;7.30;;
19762;SDS011;10040;42.614;23.164;2022-08-11T06:18:00;10.15;;;6.10;;
19762;SDS011;10040;42.614;23.164;2022-08-11T06:20:29;6.65;;;4.82;;
19762;SDS011;10040;42.614;23.164;2022-08-11T06:23:02;6.72;;;5.22;;
19762;SDS011;10040;42.614;23.164;2022-08-11T06:25:33;8.68;;;5.03;;
19762;SDS011;10040;42.614;23.164;2022-08-11T06:28:02;6.68;;;5.28;;
19762;SDS011;10040;42.614;23.164;2022-08-11T06:30:34;5.38;;;4.75;;
19762;SDS011;10040;42.614;23.164;2022-08-11T06:33:07;9.23;;;4.47;;
19762;SDS011;10040;42.614;23.164;2022-08-11T06:35:37;4.63;;;4.22;;
19762;SDS011;10040;42.614;23.164;2022-08-11T06:38:14;7.10;;;4.80;;
19762;SDS011;10040;42.614;23.164;2022-08-11T06:40:53;5.18;;;4.45;;
19762;SDS011;10040;42.614;23.164;2022-08-11T06:43:44;4.85;;;4.45;;
19762;SDS011;10040;42.614;23.164;2022-08-11T06:46:23;8.82;;;4.60;;
19762;SDS011;10040;42.614;23.164;2022-08-11T06:48:56;5.95;;;3.92;;
19762;SDS011;10040;42.614;23.164;2022-08-11T06:51:28;4.88;;;4.38;;
19762;SDS011;10040;42.614;23.164;2022-08-11T06:53:56;5.18;;;4.18;;
19762;SDS011;10040;42.614;23.164;2022-08-11T06:56:26;5.35;;;4.20;;
19762;SDS011;10040;42.614;23.164;2022-08-11T06:59:14;4.57;;;4.18;;
19762;SDS011;10040;42.614;23.164;2022-08-11T07:02:04;6.15;;;4.03;;
19762;SDS011;10040;42.614;23.164;2022-08-11T07:04:39;4.80;;;4.30;;
19762;SDS011;10040;42.614;23.164;2022-08-11T07:07:18;4.30;;;3.90;;
19762;SDS011;10040;42.614;23.164;2022-08-11T07:10:35;4.68;;;4.10;;
19762;SDS011;10040;42.614;23.164;2022-08-11T07:13:32;4.50;;;3.65;;
19762;SDS011;10040;42.614;23.164;2022-08-11T07:16:21;4.70;;;4.20;;
19762;SDS011;10040;42.614;23.164;2022-08-11T07:18:56;5.38;;;4.40;;
19762;SDS011;10040;42.614;23.164;2022-08-11T07:21:44;4.22;;;3.83;;
19762;SDS011;10040;42.614;23.164;2022-08-11T07:24:31;4.47;;;4.03;;
19762;SDS011;10040;42.614;23.164;2022-08-11T07:27:19;4.40;;;4.00;;
19762;SDS011;10040;42.614;23.164;2022-08-11T07:30:08;4.00;;;3.70;;
19762;SDS011;10040;42.614;23.164;2022-08-11T07:32:50;4.32;;;3.92;;
19762;SDS011;10040;42.614;23.164;2022-08-11T07:35:23;4.18;;;3.78;;
19762;SDS011;10040;42.614;23.164;2022-08-11T07:37:57;5.25;;;3.47;;
19762;SDS011;10040;42.614;23.164;2022-08-11T07:40:28;4.22;;;3.88;;
19762;SDS011;10040;42.614;23.164;2022-08-11T07:42:56;5.78;;;4.13;;
19762;SDS011;10040;42.614;23.164;2022-08-11T07:45:26;4.53;;;3.65;;
19762;SDS011;10040;42.614;23.164;2022-08-11T07:48:11;5.50;;;3.95;;
19762;SDS011;10040;42.614;23.164;2022-08-11T07:51:00;5.05;;;4.00;;
19762;SDS011;10040;42.614;23.164;2022-08-11T07:53:45;4.22;;;3.80;;
19762;SDS011;10040;42.614;23.164;2022-08-11T07:56:14;4.45;;;4.05;;
19762;SDS011;10040;42.614;23.164;2022-08-11T07:58:44;4.43;;;4.03;;
19762;SDS011;10040;42.614;23.164;2022-08-11T08:01:30;3.97;;;3.67;;
19762;SDS011;10040;42.614;23.164;2022-08-11T08:04:16;4.93;;;4.30;;
19762;SDS011;10040;42.614;23.164;2022-08-11T08:07:03;7.22;;;4.70;;
19762;SDS011;10040;42.614;23.164;2022-08-11T08:10:08;5.20;;;4.10;;
19762;SDS011;10040;42.614;23.164;2022-08-11T08:12:54;4.43;;;3.88;;
19762;SDS011;10040;42.614;23.164;2022-08-11T08:15:40;4.22;;;3.78;;
19762;SDS011;10040;42.614;23.164;2022-08-11T08:18:25;4.40;;;4.00;;
19762;SDS011;10040;42.614;23.164;2022-08-11T08:20:54;4.38;;;3.95;;
19762;SDS011;10040;42.614;23.164;2022-08-11T08:23:38;6.10;;;3.90;;
19762;SDS011;10040;42.614;23.164;2022-08-11T08:26:26;5.68;;;3.53;;
19762;SDS011;10040;42.614;23.164;2022-08-11T08:29:11;4.03;;;3.53;;
19762;SDS011;10040;42.614;23.164;2022-08-11T08:31:56;4.00;;;3.60;;
19762;SDS011;10040;42.614;23.164;2022-08-11T08:34:24;6.05;;;3.70;;
19762;SDS011;10040;42.614;23.164;2022-08-11T08:36:52;4.20;;;3.65;;
19762;SDS011;10040;42.614;23.164;2022-08-11T08:39:20;5.70;;;3.75;;
19762;SDS011;10040;42.614;23.164;2022-08-11T08:41:51;4.97;;;3.80;;
19762;SDS011;10040;42.614;23.164;2022-08-11T08:44:21;4.03;;;3.20;;
19762;SDS011;10040;42.614;23.164;2022-08-11T08:46:53;3.67;;;3.38;;
19762;SDS011;10040;42.614;23.164;2022-08-11T08:49:24;5.00;;;3.45;;
19762;SDS011;10040;42.614;23.164;2022-08-11T08:51:55;4.05;;;2.90;;
19762;SDS011;10040;42.614;23.164;2022-08-11T08:54:29;4.03;;;3.20;;
19762;SDS011;10040;42.614;23.164;2022-08-11T08:57:02;4.63;;;3.30;;
19762;SDS011;10040;42.614;23.164;2022-08-11T08:59:31;3.83;;;3.05;;
19762;SDS011;10040;42.614;23.164;2022-08-11T09:02:03;4.68;;;3.35;;
19762;SDS011;10040;42.614;23.164;2022-08-11T09:04:32;3.70;;;3.20;;
19762;SDS011;10040;42.614;23.164;2022-08-11T09:07:02;3.75;;;3.00;;
19762;SDS011;10040;42.614;23.164;2022-08-11T09:09:36;3.60;;;3.30;;
19762;SDS011;10040;42.614;23.164;2022-08-11T09:12:04;3.28;;;2.90;;
19762;SDS011;10040;42.614;23.164;2022-08-11T09:14:34;3.88;;;3.22;;
19762;SDS011;10040;42.614;23.164;2022-08-11T09:17:20;4.38;;;3.10;;
19762;SDS011;10040;42.614;23.164;2022-08-11T09:19:51;4.10;;;2.90;;
19762;SDS011;10040;42.614;23.164;2022-08-11T09:22:25;3.83;;;3.25;;
19762;SDS011;10040;42.614;23.164;2022-08-11T09:25:12;3.55;;;3.10;;
19762;SDS011;10040;42.614;23.164;2022-08-11T09:27:57;4.25;;;2.50;;
19762;SDS011;10040;42.614;23.164;2022-08-11T09:30:25;4.10;;;2.47;;
19762;SDS011;10040;42.614;23.164;2022-08-11T09:32:55;3.15;;;2.90;;
19762;SDS011;10040;42.614;23.164;2022-08-11T09:35:25;5.05;;;3.08;;
19762;SDS011;10040;42.614;23.164;2022-08-11T09:37:54;3.08;;;2.78;;
19762;SDS011;10040;42.614;23.164;2022-08-11T09:40:44;5.90;;;2.88;;
19762;SDS011;10040;42.614;23.164;2022-08-11T09:43:14;3.88;;;3.17;;
19762;SDS011;10040;42.614;23.164;2022-08-11T09:46:02;5.53;;;2.90;;
19762;SDS011;10040;42.614;23.164;2022-08-11T09:48:30;3.40;;;2.70;;
19762;SDS011;10040;42.614;23.164;2022-08-11T09:51:06;3.08;;;2.78;;
19762;SDS011;10040;42.614;23.164;2022-08-11T09:53:35;6.63;;;3.42;;
19762;SDS011;10040;42.614;23.164;2022-08-11T09:56:08;3.58;;;3.28;;
19762;SDS011;10040;42.614;23.164;2022-08-11T09:58:55;7.05;;;3.42;;
19762;SDS011;10040;42.614;23.164;2022-08-11T10:01:27;3.70;;;3.40;;
19762;SDS011;10040;42.614;23.164;2022-08-11T10:03:58;6.13;;;3.45;;
19762;SDS011;10040;42.614;23.164;2022-08-11T10:06:29;5.53;;;3.85;;
19762;SDS011;10040;42.614;23.164;2022-08-11T10:09:19;4.32;;;3.92;;
19762;SDS011;10040;42.614;23.164;2022-08-11T10:11:50;4.07;;;3.67;;
19762;SDS011;10040;42.614;23.164;2022-08-11T10:14:22;5.20;;;3.75;;
19762;SDS011;10040;42.614;23.164;2022-08-11T10:17:08;4.53;;;3.83;;
19762;SDS011;10040;42.614;23.164;2022-08-11T10:19:36;4.45;;;3.60;;
19762;SDS011;10040;42.614;23.164;2022-08-11T10:22:05;4.45;;;3.85;;
19762;SDS011;10040;42.614;23.164;2022-08-11T10:24:51;4.30;;;3.70;;
19762;SDS011;10040;42.614;23.164;2022-08-11T10:27:39;4.38;;;4.00;;
19762;SDS011;10040;42.614;23.164;2022-08-11T10:30:09;3.60;;;3.28;;
19762;SDS011;10040;42.614;23.164;2022-08-11T10:32:55;4.53;;;3.30;;
19762;SDS011;10040;42.614;23.164;2022-08-11T10:35:41;3.97;;;3.13;;
19762;SDS011;10040;42.614;23.164;2022-08-11T10:38:11;3.78;;;3.47;;
19762;SDS011;10040;42.614;23.164;2022-08-11T10:40:40;3.47;;;3.17;;
19762;SDS011;10040;42.614;23.164;2022-08-11T10:43:34;4.95;;;3.47;;
19762;SDS011;10040;42.614;23.164;2022-08-11T10:46:05;4.07;;;3.67;;
19762;SDS011;10040;42.614;23.164;2022-08-11T10:48:53;5.13;;;3.80;;
19762;SDS011;10040;42.614;23.164;2022-08-11T10:51:22;6.18;;;4.80;;
19762;SDS011;10040;42.614;23.164;2022-08-11T10:54:09;5.25;;;3.95;;
19762;SDS011;10040;42.614;23.164;2022-08-11T10:56:54;4.75;;;4.35;;
19762;SDS011;10040;42.614;23.164;2022-08-11T10:59:41;4.38;;;3.97;;
19762;SDS011;10040;42.614;23.164;2022-08-11T11:02:12;4.75;;;4.25;;
19762;SDS011;10040;42.614;23.164;2022-08-11T11:04:46;5.28;;;4.03;;
19762;SDS011;10040;42.614;23.164;2022-08-11T11:07:26;5.47;;;3.90;;
19762;SDS011;10040;42.614;23.164;2022-08-11T11:10:03;4.40;;;3.97;;
19762;SDS011;10040;42.614;23.164;2022-08-11T11:12:35;4.30;;;3.90;;
19762;SDS011;10040;42.614;23.164;2022-08-11T11:15:23;5.63;;;3.75;;
19762;SDS011;10040;42.614;23.164;2022-08-11T11:18:18;3.72;;;3.40;;
19762;SDS011;10040;42.614;23.164;2022-08-11T11:20:52;4.03;;;3.55;;
19762;SDS011;10040;42.614;23.164;2022-08-11T11:23:24;4.20;;;3.80;;
19762;SDS011;10040;42.614;23.164;2022-08-11T11:25:59;4.05;;;3.28;;
19762;SDS011;10040;42.614;23.164;2022-08-11T11:28:42;2.80;;;2.60;;
19762;SDS011;10040;42.614;23.164;2022-08-11T11:31:27;2.75;;;2.53;;
19762;SDS011;10040;42.614;23.164;2022-08-11T11:34:13;3.08;;;2.80;;
19762;SDS011;10040;42.614;23.164;2022-08-11T11:36:49;3.40;;;3.10;;
19762;SDS011;10040;42.614;23.164;2022-08-11T11:39:21;3.97;;;2.72;;
19762;SDS011;10040;42.614;23.164;2022-08-11T11:41:51;5.68;;;3.10;;
19762;SDS011;10040;42.614;23.164;2022-08-11T11:44:20;3.70;;;2.85;;
19762;SDS011;10040;42.614;23.164;2022-08-11T11:46:50;3.20;;;2.90;;
19762;SDS011;10040;42.614;23.164;2022-08-11T11:49:37;3.88;;;3.00;;
19762;SDS011;10040;42.614;23.164;2022-08-11T11:52:12;3.60;;;2.90;;
19762;SDS011;10040;42.614;23.164;2022-08-11T11:54:43;2.92;;;2.70;;
19762;SDS011;10040;42.614;23.164;2022-08-11T11:57:16;4.35;;;2.63;;
19762;SDS011;10040;42.614;23.164;2022-08-11T12:00:20;3.63;;;2.80;;
19762;SDS011;10040;42.614;23.164;2022-08-11T12:03:21;2.72;;;2.47;;
19762;SDS011;10040;42.614;23.164;2022-08-11T12:05:51;4.90;;;2.88;;
19762;SDS011;10040;42.614;23.164;2022-08-11T12:08:19;2.50;;;2.30;;
19762;SDS011;10040;42.614;23.164;2022-08-11T12:10:48;3.80;;;2.30;;
19762;SDS011;10040;42.614;23.164;2022-08-11T12:13:38;3.00;;;2.60;;
19762;SDS011;10040;42.614;23.164;2022-08-11T12:16:06;2.72;;;2.45;;
19762;SDS011;10040;42.614;23.164;2022-08-11T12:18:36;2.80;;;2.60;;
19762;SDS011;10040;42.614;23.164;2022-08-11T12:21:06;2.83;;;2.63;;
19762;SDS011;10040;42.614;23.164;2022-08-11T12:23:36;2.85;;;2.40;;
19762;SDS011;10040;42.614;23.164;2022-08-11T12:26:22;4.60;;;2.90;;
19762;SDS011;10040;42.614;23.164;2022-08-11T12:29:09;2.58;;;2.40;;
19762;SDS011;10040;42.614;23.164;2022-08-11T12:31:38;5.97;;;2.80;;
19762;SDS011;10040;42.614;23.164;2022-08-11T12:34:08;2.88;;;2.20;;
19762;SDS011;10040;42.614;23.164;2022-08-11T12:36:38;3.05;;;2.40;;
19762;SDS011;10040;42.614;23.164;2022-08-11T12:39:08;3.40;;;2.45;;
19762;SDS011;10040;42.614;23.164;2022-08-11T12:41:37;2.45;;;2.25;;
19762;SDS011;10040;42.614;23.164;2022-08-11T12:44:26;2.97;;;2.35;;
19762;SDS011;10040;42.614;23.164;2022-08-11T12:47:12;2.38;;;2.17;;
19762;SDS011;10040;42.614;23.164;2022-08-11T12:49:47;2.78;;;2.45;;
19762;SDS011;10040;42.614;23.164;2022-08-11T12:52:34;4.38;;;2.42;;
19762;SDS011;10040;42.614;23.164;2022-08-11T12:55:10;3.88;;;2.50;;
19762;SDS011;10040;42.614;23.164;2022-08-11T12:58:00;2.83;;;2.58;;
19762;SDS011;10040;42.614;23.164;2022-08-11T13:00:43;4.85;;;2.80;;
19762;SDS011;10040;42.614;23.164;2022-08-11T13:03:28;4.68;;;2.28;;
19762;SDS011;10040;42.614;23.164;2022-08-11T13:06:17;2.85;;;2.63;;
19762;SDS011;10040;42.614;23.164;2022-08-11T13:08:45;2.58;;;2.33;;
19762;SDS011;10040;42.614;23.164;2022-08-11T13:11:14;2.55;;;2.35;;
19762;SDS011;10040;42.614;23.164;2022-08-11T13:14:00;3.13;;;2.78;;
19762;SDS011;10040;42.614;23.164;2022-08-11T13:16:30;7.18;;;3.05;;
19762;SDS011;10040;42.614;23.164;2022-08-11T13:19:20;2.85;;;2.60;;
19762;SDS011;10040;42.614;23.164;2022-08-11T13:21:50;2.80;;;2.60;;
19762;SDS011;10040;42.614;23.164;2022-08-11T13:24:19;3.10;;;2.75;;
19762;SDS011;10040;42.614;23.164;2022-08-11T13:26:48;4.50;;;2.78;;
19762;SDS011;10040;42.614;23.164;2022-08-11T13:29:18;4.20;;;2.70;;
19762;SDS011;10040;42.614;23.164;2022-08-11T13:31:47;2.95;;;2.60;;
19762;SDS011;10040;42.614;23.164;2022-08-11T13:34:15;4.50;;;3.45;;
19762;SDS011;10040;42.614;23.164;2022-08-11T13:36:44;3.05;;;2.70;;
19762;SDS011;10040;42.614;23.164;2022-08-11T13:39:15;2.80;;;2.60;;
19762;SDS011;10040;42.614;23.164;2022-08-11T13:41:43;3.13;;;2.78;;
19762;SDS011;10040;42.614;23.164;2022-08-11T13:44:14;3.10;;;2.80;;
19762;SDS011;10040;42.614;23.164;2022-08-11T13:46:43;4.35;;;3.00;;
19762;SDS011;10040;42.614;23.164;2022-08-11T13:49:13;3.50;;;2.80;;
19762;SDS011;10040;42.614;23.164;2022-08-11T13:51:42;4.72;;;2.67;;
19762;SDS011;10040;42.614;23.164;2022-08-11T13:54:11;3.83;;;2.90;;
19762;SDS011;10040;42.614;23.164;2022-08-11T13:56:45;3.20;;;2.90;;
19762;SDS011;10040;42.614;23.164;2022-08-11T13:59:14;4.72;;;2.90;;
19762;SDS011;10040;42.614;23.164;2022-08-11T14:01:48;3.03;;;2.72;;
19762;SDS011;10040;42.614;23.164;2022-08-11T14:04:19;3.25;;;2.80;;
19762;SDS011;10040;42.614;23.164;2022-08-11T14:06:52;5.22;;;2.78;;
19762;SDS011;10040;42.614;23.164;2022-08-11T14:09:27;3.45;;;2.90;;
19762;SDS011;10040;42.614;23.164;2022-08-11T14:12:00;3.30;;;2.80;;
19762;SDS011;10040;42.614;23.164;2022-08-11T14:14:47;3.15;;;2.85;;
19762;SDS011;10040;42.614;23.164;2022-08-11T14:17:19;5.35;;;2.80;;
19762;SDS011;10040;42.614;23.164;2022-08-11T14:19:49;3.20;;;2.97;;
19762;SDS011;10040;42.614;23.164;2022-08-11T14:22:18;5.80;;;3.05;;
19762;SDS011;10040;42.614;23.164;2022-08-11T14:24:48;3.42;;;3.17;;
19762;SDS011;10040;42.614;23.164;2022-08-11T14:27:16;4.72;;;3.20;;
19762;SDS011;10040;42.614;23.164;2022-08-11T14:29:50;4.55;;;3.20;;
19762;SDS011;10040;42.614;23.164;2022-08-11T14:32:19;3.97;;;2.80;;
19762;SDS011;10040;42.614;23.164;2022-08-11T14:34:47;3.28;;;2.78;;
19762;SDS011;10040;42.614;23.164;2022-08-11T14:37:18;3.35;;;2.90;;
19762;SDS011;10040;42.614;23.164;2022-08-11T14:39:49;3.40;;;2.83;;
19762;SDS011;10040;42.614;23.164;2022-08-11T14:42:19;5.32;;;2.85;;
19762;SDS011;10040;42.614;23.164;2022-08-11T14:45:08;3.38;;;2.75;;
19762;SDS011;10040;42.614;23.164;2022-08-11T14:47:55;2.95;;;2.65;;
19762;SDS011;10040;42.614;23.164;2022-08-11T14:50:28;3.10;;;2.80;;
19762;SDS011;10040;42.614;23.164;2022-08-11T14:52:59;3.35;;;2.72;;
19762;SDS011;10040;42.614;23.164;2022-08-11T14:55:31;3.03;;;2.83;;
19762;SDS011;10040;42.614;23.164;2022-08-11T14:58:20;4.43;;;2.95;;
19762;SDS011;10040;42.614;23.164;2022-08-11T15:00:51;4.20;;;2.65;;
19762;SDS011;10040;42.614;23.164;2022-08-11T15:03:20;4.70;;;3.50;;
19762;SDS011;10040;42.614;23.164;2022-08-11T15:05:49;4.57;;;3.08;;
19762;SDS011;10040;42.614;23.164;2022-08-11T15:08:19;3.17;;;2.90;;
19762;SDS011;10040;42.614;23.164;2022-08-11T15:11:10;3.92;;;3.20;;
19762;SDS011;10040;42.614;23.164;2022-08-11T15:13:53;3.13;;;2.83;;
19762;SDS011;10040;42.614;23.164;2022-08-11T15:16:22;4.72;;;2.80;;
19762;SDS011;10040;42.614;23.164;2022-08-11T15:19:08;2.83;;;2.60;;
19762;SDS011;10040;42.614;23.164;2022-08-11T15:21:36;4.13;;;2.67;;
19762;SDS011;10040;42.614;23.164;2022-08-11T15:24:21;5.22;;;3.15;;
19762;SDS011;10040;42.614;23.164;2022-08-11T15:26:51;8.48;;;3.50;;
19762;SDS011;10040;42.614;23.164;2022-08-11T15:29:37;4.65;;;3.60;;
19762;SDS011;10040;42.614;23.164;2022-08-11T15:32:24;4.97;;;3.80;;
19762;SDS011;10040;42.614;23.164;2022-08-11T15:35:12;6.10;;;3.25;;
19762;SDS011;10040;42.614;23.164;2022-08-11T15:38:00;3.83;;;2.90;;
19762;SDS011;10040;42.614;23.164;2022-08-11T15:40:30;4.25;;;3.10;;
19762;SDS011;10040;42.614;23.164;2022-08-11T15:43:24;3.67;;;3.00;;
19762;SDS011;10040;42.614;23.164;2022-08-11T15:46:13;2.78;;;2.58;;
19762;SDS011;10040;42.614;23.164;2022-08-11T15:48:43;4.53;;;3.28;;
19762;SDS011;10040;42.614;23.164;2022-08-11T15:51:15;3.45;;;3.10;;
19762;SDS011;10040;42.614;23.164;2022-08-11T15:53:49;3.85;;;3.25;;
19762;SDS011;10040;42.614;23.164;2022-08-11T15:56:19;6.00;;;3.00;;
19762;SDS011;10040;42.614;23.164;2022-08-11T15:58:50;3.17;;;2.92;;
19762;SDS011;10040;42.614;23.164;2022-08-11T16:01:38;6.22;;;3.47;;
19762;SDS011;10040;42.614;23.164;2022-08-11T16:04:25;3.67;;;3.10;;
19762;SDS011;10040;42.614;23.164;2022-08-11T16:06:56;8.13;;;3.25;;
19762;SDS011;10040;42.614;23.164;2022-08-11T16:09:30;3.88;;;3.17;;
19762;SDS011;10040;42.614;23.164;2022-08-11T16:12:02;3.50;;;3.20;;
19762;SDS011;10040;42.614;23.164;2022-08-11T16:14:35;4.18;;;3.30;;
19762;SDS011;10040;42.614;23.164;2022-08-11T16:17:23;4.75;;;2.88;;